Time;durP1;ratioP1;P1;durP2;ratioP2;P2;SDS_P1;SDS_P2;PMS_P1;PMS_P2;Temp;Humidity;BMP_temperature;BMP_pressure;BME280_temperature;BME280_humidity;BME280_pressure;Samples;Min_cycle;Max_cycle;Signal;HPM_P1;HPM_P2
2022/09/01 04:51:28;;;;;;;;;;;10.80;99.90;;;;;;6238397;22;20006;-75
2022/09/01 04:57:16;;;;;;;;;;;10.80;99.90;;;;;;6248799;23;20245;-74
2022/09/01 04:59:42;;;;;;;;;;;10.80;99.90;;;;;;6196429;23;19995;-74
2022/09/01 05:02:08;;;;;;;;;;;10.80;99.90;;;;;;6203022;23;19915;-72
2022/09/01 05:04:45;;;;;;;;;;;10.80;99.90;;;;;;6205742;22;20252;-75
2022/09/01 05:07:14;;;;;;;;;;;10.70;99.90;;;;;;6210046;23;19920;-73
2022/09/01 05:09:40;;;;;;;;;;;10.80;99.90;;;;;;6236433;23;20227;-73
2022/09/01 05:12:15;;;;;;;;;;;10.80;99.90;;;;;;6202336;23;19969;-75
2022/09/01 05:28:02;;;;;;;;;;;;;;;;;;;;;
2022/09/01 17:54:51;;;;;;;;;;;18.70;99.90;;;;;;6245261;23;19914;-80
2022/09/01 17:57:42;;;;;;;;;;;18.60;99.90;;;;;;6219565;23;19946;-77
2022/09/01 18:00:54;;;;;;;;;;;18.40;99.90;;;;;;6219442;23;19916;-79
2022/09/01 18:06:39;;;;;;;;;;;18.30;99.90;;;;;;6221044;23;19924;-76
2022/09/01 18:09:05;;;;;;;;;;;18.20;99.90;;;;;;6194965;23;19916;-72
2022/09/01 18:36:36;;;;;;;;;;;17.40;99.90;;;;;;6216747;22;19919;-71
2022/09/01 18:39:27;;;;;;;;;;;17.40;99.90;;;;;;6220285;23;20340;-72
2022/09/01 18:42:02;;;;;;;;;;;17.40;99.90;;;;;;6194968;23;19920;-75
2022/09/01 18:44:35;;;;;;;;;;;17.30;99.90;;;;;;6194590;23;19927;-76
2022/09/01 18:47:06;;;;;;;;;;;17.20;99.90;;;;;;6194970;23;19923;-76
2022/09/01 18:49:32;;;;;;;;;;;17.10;99.90;;;;;;6195343;23;19986;-76
2022/09/01 18:51:58;;;;;;;;;;;17.10;99.90;;;;;;6195432;23;20285;-74
2022/09/01 18:55:05;;;;;;;;;;;17.00;99.90;;;;;;6195234;23;19915;-76
2022/09/01 18:57:34;;;;;;;;;;;17.00;99.90;;;;;;6044844;23;19996;-73
2022/09/01 19:00:06;;;;;;;;;;;16.90;99.90;;;;;;6069984;23;20304;-74
2022/09/01 19:03:13;;;;;;;;;;;16.90;99.90;;;;;;6130896;23;20338;-75
2022/09/01 19:05:53;;;;;;;;;;;16.80;99.90;;;;;;6217736;23;19920;-72
2022/09/01 19:08:38;;;;;;;;;;;16.70;99.90;;;;;;6218792;23;20376;-76
2022/09/01 19:11:06;;;;;;;;;;;16.60;99.90;;;;;;6193886;23;19915;-74
2022/09/01 19:17:20;;;;;;;;;;;16.60;99.90;;;;;;6244884;23;19919;-78
2022/09/01 19:20:02;;;;;;;;;;;16.50;99.90;;;;;;6193866;23;19950;-75
2022/09/01 19:22:47;;;;;;;;;;;16.50;99.90;;;;;;6217431;23;19916;-71
2022/09/01 19:25:35;;;;;;;;;;;16.50;99.90;;;;;;6193049;23;19924;-80
2022/09/01 19:51:36;;;;;;;;;;;16.10;99.90;;;;;;6243597;22;20291;-76
2022/09/01 19:57:51;;;;;;;;;;;15.90;99.90;;;;;;6218745;23;19922;-77
2022/09/01 20:00:51;;;;;;;;;;;16.00;99.90;;;;;;6193957;23;20316;-75
2022/09/01 20:09:48;;;;;;;;;;;16.00;99.90;;;;;;6211923;22;20302;-74
2022/09/01 20:12:17;;;;;;;;;;;16.00;99.90;;;;;;6127798;23;19920;-75
2022/09/01 20:15:18;;;;;;;;;;;16.10;99.90;;;;;;6167316;23;19990;-75
2022/09/01 20:21:07;;;;;;;;;;;16.10;99.90;;;;;;6218453;23;19915;-73
2022/09/01 20:23:44;;;;;;;;;;;16.10;99.90;;;;;;6191287;23;19916;-75
2022/09/01 20:26:39;;;;;;;;;;;16.10;99.90;;;;;;6167277;23;19928;-75
2022/09/01 20:32:52;;;;;;;;;;;16.00;99.90;;;;;;6218355;23;19930;-73
2022/09/01 20:35:43;;;;;;;;;;;15.80;99.90;;;;;;6191090;23;19916;-79
2022/09/01 20:41:22;;;;;;;;;;;15.80;99.90;;;;;;6217479;23;20234;-76
2022/09/01 20:43:50;;;;;;;;;;;15.70;99.90;;;;;;6192532;23;19979;-73
2022/09/01 20:46:19;;;;;;;;;;;15.60;99.90;;;;;;6167438;23;19924;-74
2022/09/01 20:48:46;;;;;;;;;;;15.60;99.90;;;;;;6191728;23;19916;-72
2022/09/01 20:51:12;;;;;;;;;;;15.60;99.90;;;;;;6166852;23;19961;-73
2022/09/01 20:53:37;;;;;;;;;;;15.60;99.90;;;;;;6167148;23;19919;-72
2022/09/01 20:56:21;;;;;;;;;;;15.60;99.90;;;;;;6167280;23;19927;-72
2022/09/01 20:59:05;;;;;;;;;;;15.50;99.90;;;;;;6192185;23;20323;-72
2022/09/01 21:01:49;;;;;;;;;;;15.50;99.90;;;;;;6217456;23;19920;-74
2022/09/01 21:04:19;;;;;;;;;;;15.60;99.90;;;;;;6165717;23;20310;-72
